sensor_id;sensor_type;location;lat;lon;timestamp;P1;durP1;ratioP1;P2;durP2;ratioP2
61785;SDS011;47692;53.714;11.372;2023-02-18T00:01:55;11.57;;;1.80;;
61785;SDS011;47692;53.714;11.372;2023-02-18T00:04:20;15.57;;;2.20;;
61785;SDS011;47692;53.714;11.372;2023-02-18T00:06:46;12.18;;;1.92;;
61785;SDS011;47692;53.714;11.372;2023-02-18T00:09:11;12.30;;;1.88;;
61785;SDS011;47692;53.714;11.372;2023-02-18T00:11:37;11.65;;;1.73;;
61785;SDS011;47692;53.714;11.372;2023-02-18T00:14:03;16.05;;;2.20;;
61785;SDS011;47692;53.714;11.372;2023-02-18T00:16:30;21.17;;;3.03;;
61785;SDS011;47692;53.714;11.372;2023-02-18T00:18:56;14.85;;;2.33;;
61785;SDS011;47692;53.714;11.372;2023-02-18T00:21:23;16.92;;;1.83;;
61785;SDS011;47692;53.714;11.372;2023-02-18T00:23:49;18.10;;;2.00;;
61785;SDS011;47692;53.714;11.372;2023-02-18T00:26:15;13.40;;;2.08;;
61785;SDS011;47692;53.714;11.372;2023-02-18T00:28:42;15.32;;;2.70;;
61785;SDS011;47692;53.714;11.372;2023-02-18T00:31:13;13.15;;;3.45;;
61785;SDS011;47692;53.714;11.372;2023-02-18T00:33:41;16.98;;;3.17;;
61785;SDS011;47692;53.714;11.372;2023-02-18T00:36:07;15.77;;;2.38;;
61785;SDS011;47692;53.714;11.372;2023-02-18T00:38:35;12.07;;;2.65;;
61785;SDS011;47692;53.714;11.372;2023-02-18T00:41:01;13.98;;;1.55;;
61785;SDS011;47692;53.714;11.372;2023-02-18T00:43:27;17.65;;;2.38;;
61785;SDS011;47692;53.714;11.372;2023-02-18T00:45:52;12.48;;;2.08;;
61785;SDS011;47692;53.714;11.372;2023-02-18T00:48:18;12.20;;;1.90;;
61785;SDS011;47692;53.714;11.372;2023-02-18T00:50:43;9.30;;;2.10;;
61785;SDS011;47692;53.714;11.372;2023-02-18T00:53:09;15.20;;;2.85;;
61785;SDS011;47692;53.714;11.372;2023-02-18T00:55:41;14.52;;;1.85;;
61785;SDS011;47692;53.714;11.372;2023-02-18T00:58:10;14.38;;;2.33;;
61785;SDS011;47692;53.714;11.372;2023-02-18T01:00:36;10.32;;;1.60;;
61785;SDS011;47692;53.714;11.372;2023-02-18T01:03:02;15.68;;;2.28;;
61785;SDS011;47692;53.714;11.372;2023-02-18T01:05:30;11.77;;;2.00;;
61785;SDS011;47692;53.714;11.372;2023-02-18T01:07:55;9.80;;;1.98;;
61785;SDS011;47692;53.714;11.372;2023-02-18T01:10:21;13.35;;;1.95;;
61785;SDS011;47692;53.714;11.372;2023-02-18T01:12:46;8.05;;;2.30;;
61785;SDS011;47692;53.714;11.372;2023-02-18T01:15:13;14.77;;;1.90;;
61785;SDS011;47692;53.714;11.372;2023-02-18T01:17:39;12.75;;;1.60;;
61785;SDS011;47692;53.714;11.372;2023-02-18T01:20:05;15.93;;;1.98;;
61785;SDS011;47692;53.714;11.372;2023-02-18T01:22:31;18.02;;;2.35;;
61785;SDS011;47692;53.714;11.372;2023-02-18T01:24:56;15.32;;;2.00;;
61785;SDS011;47692;53.714;11.372;2023-02-18T01:27:21;15.05;;;1.70;;
61785;SDS011;47692;53.714;11.372;2023-02-18T01:29:47;17.90;;;2.85;;
61785;SDS011;47692;53.714;11.372;2023-02-18T01:32:12;15.30;;;1.65;;
61785;SDS011;47692;53.714;11.372;2023-02-18T01:34:37;19.17;;;2.53;;
61785;SDS011;47692;53.714;11.372;2023-02-18T01:37:03;9.07;;;1.88;;
61785;SDS011;47692;53.714;11.372;2023-02-18T01:39:28;14.30;;;2.38;;
61785;SDS011;47692;53.714;11.372;2023-02-18T01:41:54;14.43;;;1.80;;
61785;SDS011;47692;53.714;11.372;2023-02-18T01:44:20;11.88;;;2.50;;
61785;SDS011;47692;53.714;11.372;2023-02-18T01:46:47;13.45;;;2.22;;
61785;SDS011;47692;53.714;11.372;2023-02-18T01:49:20;11.50;;;1.95;;
61785;SDS011;47692;53.714;11.372;2023-02-18T01:51:53;7.45;;;1.60;;
61785;SDS011;47692;53.714;11.372;2023-02-18T01:54:27;13.68;;;2.10;;
61785;SDS011;47692;53.714;11.372;2023-02-18T01:59:30;21.95;;;2.53;;
61785;SDS011;47692;53.714;11.372;2023-02-18T02:01:59;8.48;;;1.58;;
61785;SDS011;47692;53.714;11.372;2023-02-18T02:04:25;13.07;;;2.55;;
61785;SDS011;47692;53.714;11.372;2023-02-18T02:06:50;10.57;;;1.73;;
61785;SDS011;47692;53.714;11.372;2023-02-18T02:09:16;8.82;;;1.70;;
61785;SDS011;47692;53.714;11.372;2023-02-18T02:23:56;7.22;;;2.05;;
61785;SDS011;47692;53.714;11.372;2023-02-18T02:34:33;19.35;;;3.15;;
61785;SDS011;47692;53.714;11.372;2023-02-18T02:47:50;15.73;;;1.95;;
61785;SDS011;47692;53.714;11.372;2023-02-18T02:50:39;18.38;;;2.47;;
61785;SDS011;47692;53.714;11.372;2023-02-18T02:53:05;20.88;;;2.15;;
61785;SDS011;47692;53.714;11.372;2023-02-18T02:55:38;16.90;;;3.17;;
61785;SDS011;47692;53.714;11.372;2023-02-18T02:58:03;16.58;;;2.25;;
61785;SDS011;47692;53.714;11.372;2023-02-18T03:03:31;15.00;;;2.30;;
61785;SDS011;47692;53.714;11.372;2023-02-18T03:11:34;20.83;;;2.45;;
61785;SDS011;47692;53.714;11.372;2023-02-18T03:14:09;17.42;;;2.30;;
61785;SDS011;47692;53.714;11.372;2023-02-18T03:16:52;11.40;;;1.90;;
61785;SDS011;47692;53.714;11.372;2023-02-18T03:19:32;12.45;;;2.30;;
61785;SDS011;47692;53.714;11.372;2023-02-18T03:22:06;15.18;;;2.13;;
61785;SDS011;47692;53.714;11.372;2023-02-18T03:24:39;14.32;;;2.22;;
61785;SDS011;47692;53.714;11.372;2023-02-18T03:27:28;11.70;;;1.80;;
61785;SDS011;47692;53.714;11.372;2023-02-18T03:29:57;19.50;;;2.08;;
61785;SDS011;47692;53.714;11.372;2023-02-18T03:32:25;20.17;;;2.22;;
61785;SDS011;47692;53.714;11.372;2023-02-18T03:34:54;15.13;;;2.05;;
61785;SDS011;47692;53.714;11.372;2023-02-18T03:37:24;9.55;;;2.05;;
61785;SDS011;47692;53.714;11.372;2023-02-18T03:39:51;19.80;;;2.33;;
61785;SDS011;47692;53.714;11.372;2023-02-18T03:42:24;17.65;;;1.63;;
61785;SDS011;47692;53.714;11.372;2023-02-18T03:44:51;13.10;;;2.67;;
61785;SDS011;47692;53.714;11.372;2023-02-18T03:47:16;10.43;;;1.80;;
61785;SDS011;47692;53.714;11.372;2023-02-18T03:49:42;18.42;;;2.03;;
61785;SDS011;47692;53.714;11.372;2023-02-18T03:52:07;18.13;;;2.75;;
61785;SDS011;47692;53.714;11.372;2023-02-18T03:54:33;18.38;;;2.17;;
61785;SDS011;47692;53.714;11.372;2023-02-18T03:56:58;16.90;;;2.17;;
61785;SDS011;47692;53.714;11.372;2023-02-18T03:59:23;16.52;;;2.05;;
61785;SDS011;47692;53.714;11.372;2023-02-18T04:01:49;12.20;;;1.83;;
61785;SDS011;47692;53.714;11.372;2023-02-18T04:04:14;18.85;;;2.10;;
61785;SDS011;47692;53.714;11.372;2023-02-18T04:06:39;17.48;;;1.77;;
61785;SDS011;47692;53.714;11.372;2023-02-18T04:09:05;16.38;;;1.90;;
61785;SDS011;47692;53.714;11.372;2023-02-18T04:11:34;13.98;;;2.72;;
61785;SDS011;47692;53.714;11.372;2023-02-18T04:14:00;15.10;;;2.28;;
61785;SDS011;47692;53.714;11.372;2023-02-18T04:16:25;14.25;;;2.08;;
61785;SDS011;47692;53.714;11.372;2023-02-18T04:18:51;13.50;;;2.08;;
61785;SDS011;47692;53.714;11.372;2023-02-18T04:21:16;13.02;;;2.05;;
61785;SDS011;47692;53.714;11.372;2023-02-18T04:23:41;12.38;;;2.15;;
61785;SDS011;47692;53.714;11.372;2023-02-18T04:26:06;12.30;;;2.30;;
61785;SDS011;47692;53.714;11.372;2023-02-18T04:28:32;20.40;;;2.30;;
61785;SDS011;47692;53.714;11.372;2023-02-18T04:30:57;18.48;;;2.03;;
61785;SDS011;47692;53.714;11.372;2023-02-18T04:33:22;13.75;;;1.92;;
61785;SDS011;47692;53.714;11.372;2023-02-18T04:35:48;15.77;;;1.73;;
61785;SDS011;47692;53.714;11.372;2023-02-18T04:38:13;13.63;;;1.73;;
61785;SDS011;47692;53.714;11.372;2023-02-18T04:40:38;12.43;;;1.85;;
61785;SDS011;47692;53.714;11.372;2023-02-18T04:43:04;20.30;;;1.98;;
61785;SDS011;47692;53.714;11.372;2023-02-18T04:45:29;16.80;;;2.42;;
61785;SDS011;47692;53.714;11.372;2023-02-18T04:47:55;8.88;;;2.38;;
61785;SDS011;47692;53.714;11.372;2023-02-18T04:50:20;19.73;;;2.17;;
61785;SDS011;47692;53.714;11.372;2023-02-18T04:52:46;10.50;;;2.10;;
61785;SDS011;47692;53.714;11.372;2023-02-18T04:55:11;14.13;;;2.50;;
61785;SDS011;47692;53.714;11.372;2023-02-18T04:57:37;12.98;;;1.67;;
61785;SDS011;47692;53.714;11.372;2023-02-18T05:00:03;19.23;;;2.00;;
61785;SDS011;47692;53.714;11.372;2023-02-18T05:02:31;16.05;;;1.73;;
61785;SDS011;47692;53.714;11.372;2023-02-18T05:04:56;14.38;;;1.70;;
61785;SDS011;47692;53.714;11.372;2023-02-18T05:07:22;18.13;;;3.55;;
61785;SDS011;47692;53.714;11.372;2023-02-18T05:09:47;12.32;;;2.53;;
61785;SDS011;47692;53.714;11.372;2023-02-18T05:12:12;16.35;;;1.77;;
61785;SDS011;47692;53.714;11.372;2023-02-18T05:14:38;12.82;;;2.05;;
61785;SDS011;47692;53.714;11.372;2023-02-18T05:17:03;15.80;;;2.38;;
61785;SDS011;47692;53.714;11.372;2023-02-18T05:19:28;19.13;;;1.98;;
61785;SDS011;47692;53.714;11.372;2023-02-18T05:21:54;9.65;;;1.95;;
61785;SDS011;47692;53.714;11.372;2023-02-18T05:24:19;7.68;;;1.45;;
61785;SDS011;47692;53.714;11.372;2023-02-18T05:26:44;15.98;;;1.92;;
61785;SDS011;47692;53.714;11.372;2023-02-18T05:29:09;8.70;;;1.50;;
61785;SDS011;47692;53.714;11.372;2023-02-18T05:31:35;12.23;;;1.20;;
61785;SDS011;47692;53.714;11.372;2023-02-18T05:34:02;11.80;;;1.85;;
61785;SDS011;47692;53.714;11.372;2023-02-18T05:36:28;18.60;;;1.63;;
61785;SDS011;47692;53.714;11.372;2023-02-18T05:38:53;12.45;;;1.90;;
61785;SDS011;47692;53.714;11.372;2023-02-18T05:41:18;8.30;;;1.15;;
61785;SDS011;47692;53.714;11.372;2023-02-18T05:43:44;6.72;;;0.80;;
61785;SDS011;47692;53.714;11.372;2023-02-18T05:46:28;6.57;;;1.00;;
61785;SDS011;47692;53.714;11.372;2023-02-18T05:48:53;8.50;;;1.73;;
61785;SDS011;47692;53.714;11.372;2023-02-18T05:51:19;6.30;;;1.02;;
61785;SDS011;47692;53.714;11.372;2023-02-18T05:53:44;6.15;;;1.33;;
61785;SDS011;47692;53.714;11.372;2023-02-18T05:56:10;7.35;;;1.05;;
61785;SDS011;47692;53.714;11.372;2023-02-18T05:58:35;10.55;;;1.40;;
61785;SDS011;47692;53.714;11.372;2023-02-18T06:01:00;14.02;;;1.70;;
61785;SDS011;47692;53.714;11.372;2023-02-18T06:03:26;2.05;;;0.50;;
61785;SDS011;47692;53.714;11.372;2023-02-18T06:05:51;9.10;;;1.13;;
61785;SDS011;47692;53.714;11.372;2023-02-18T06:08:16;9.32;;;1.73;;
61785;SDS011;47692;53.714;11.372;2023-02-18T06:10:44;5.72;;;0.63;;
61785;SDS011;47692;53.714;11.372;2023-02-18T06:13:09;5.20;;;1.10;;
61785;SDS011;47692;53.714;11.372;2023-02-18T06:15:34;9.25;;;1.00;;
61785;SDS011;47692;53.714;11.372;2023-02-18T06:18:00;4.25;;;1.00;;
61785;SDS011;47692;53.714;11.372;2023-02-18T06:20:25;3.75;;;0.65;;
61785;SDS011;47692;53.714;11.372;2023-02-18T06:22:50;6.07;;;0.80;;
61785;SDS011;47692;53.714;11.372;2023-02-18T06:25:16;4.15;;;0.65;;
61785;SDS011;47692;53.714;11.372;2023-02-18T06:27:41;6.47;;;1.38;;
61785;SDS011;47692;53.714;11.372;2023-02-18T06:30:06;7.72;;;1.05;;
61785;SDS011;47692;53.714;11.372;2023-02-18T06:32:32;4.05;;;1.00;;
61785;SDS011;47692;53.714;11.372;2023-02-18T06:34:58;5.13;;;1.40;;
61785;SDS011;47692;53.714;11.372;2023-02-18T06:37:23;6.07;;;0.90;;
61785;SDS011;47692;53.714;11.372;2023-02-18T06:39:49;10.02;;;1.42;;
61785;SDS011;47692;53.714;11.372;2023-02-18T06:42:14;7.60;;;1.30;;
61785;SDS011;47692;53.714;11.372;2023-02-18T06:44:39;7.50;;;1.33;;
61785;SDS011;47692;53.714;11.372;2023-02-18T06:47:05;7.30;;;1.63;;
61785;SDS011;47692;53.714;11.372;2023-02-18T06:49:30;6.57;;;1.30;;
61785;SDS011;47692;53.714;11.372;2023-02-18T06:51:55;10.63;;;1.23;;
61785;SDS011;47692;53.714;11.372;2023-02-18T06:54:21;8.85;;;1.65;;
61785;SDS011;47692;53.714;11.372;2023-02-18T06:56:46;10.93;;;1.45;;
61785;SDS011;47692;53.714;11.372;2023-02-18T06:59:12;6.93;;;1.05;;
61785;SDS011;47692;53.714;11.372;2023-02-18T07:01:37;8.43;;;1.17;;
61785;SDS011;47692;53.714;11.372;2023-02-18T07:04:03;5.93;;;1.20;;
61785;SDS011;47692;53.714;11.372;2023-02-18T07:06:28;4.88;;;1.23;;
61785;SDS011;47692;53.714;11.372;2023-02-18T07:08:54;8.02;;;1.35;;
61785;SDS011;47692;53.714;11.372;2023-02-18T07:11:19;8.55;;;1.50;;
61785;SDS011;47692;53.714;11.372;2023-02-18T07:13:45;6.90;;;1.58;;
61785;SDS011;47692;53.714;11.372;2023-02-18T07:16:10;11.70;;;1.17;;
61785;SDS011;47692;53.714;11.372;2023-02-18T07:18:35;6.32;;;1.40;;
61785;SDS011;47692;53.714;11.372;2023-02-18T07:21:01;10.63;;;1.75;;
61785;SDS011;47692;53.714;11.372;2023-02-18T07:23:26;8.18;;;2.67;;
61785;SDS011;47692;53.714;11.372;2023-02-18T07:25:51;9.93;;;1.63;;
61785;SDS011;47692;53.714;11.372;2023-02-18T07:28:17;8.05;;;1.42;;
61785;SDS011;47692;53.714;11.372;2023-02-18T07:30:43;6.60;;;1.75;;
61785;SDS011;47692;53.714;11.372;2023-02-18T07:33:08;11.75;;;2.38;;
61785;SDS011;47692;53.714;11.372;2023-02-18T07:35:33;9.98;;;2.00;;
61785;SDS011;47692;53.714;11.372;2023-02-18T07:37:59;8.23;;;1.70;;
61785;SDS011;47692;53.714;11.372;2023-02-18T07:40:24;8.43;;;1.80;;
61785;SDS011;47692;53.714;11.372;2023-02-18T07:42:49;8.50;;;1.13;;
61785;SDS011;47692;53.714;11.372;2023-02-18T07:45:15;3.80;;;1.40;;
61785;SDS011;47692;53.714;11.372;2023-02-18T07:47:40;10.70;;;1.60;;
61785;SDS011;47692;53.714;11.372;2023-02-18T07:50:07;9.57;;;1.00;;
61785;SDS011;47692;53.714;11.372;2023-02-18T07:52:33;5.47;;;1.10;;
61785;SDS011;47692;53.714;11.372;2023-02-18T07:54:59;12.18;;;1.60;;
61785;SDS011;47692;53.714;11.372;2023-02-18T07:57:24;4.63;;;1.42;;
61785;SDS011;47692;53.714;11.372;2023-02-18T07:59:49;5.22;;;1.42;;
61785;SDS011;47692;53.714;11.372;2023-02-18T08:02:21;4.38;;;1.20;;
61785;SDS011;47692;53.714;11.372;2023-02-18T08:04:48;9.27;;;1.60;;
61785;SDS011;47692;53.714;11.372;2023-02-18T08:07:14;6.65;;;1.35;;
61785;SDS011;47692;53.714;11.372;2023-02-18T08:09:40;7.57;;;1.70;;
61785;SDS011;47692;53.714;11.372;2023-02-18T08:12:06;6.20;;;2.20;;
61785;SDS011;47692;53.714;11.372;2023-02-18T08:14:32;6.63;;;2.05;;
61785;SDS011;47692;53.714;11.372;2023-02-18T08:16:57;8.82;;;1.52;;
61785;SDS011;47692;53.714;11.372;2023-02-18T08:19:23;7.97;;;2.03;;
61785;SDS011;47692;53.714;11.372;2023-02-18T08:21:48;4.25;;;1.48;;
61785;SDS011;47692;53.714;11.372;2023-02-18T08:24:14;7.05;;;1.70;;
61785;SDS011;47692;53.714;11.372;2023-02-18T08:26:39;6.18;;;1.70;;
61785;SDS011;47692;53.714;11.372;2023-02-18T08:29:04;7.43;;;1.92;;
61785;SDS011;47692;53.714;11.372;2023-02-18T08:31:30;6.90;;;1.77;;
61785;SDS011;47692;53.714;11.372;2023-02-18T08:33:56;7.90;;;2.63;;
61785;SDS011;47692;53.714;11.372;2023-02-18T08:36:23;4.88;;;1.90;;
61785;SDS011;47692;53.714;11.372;2023-02-18T08:38:48;5.78;;;1.80;;
61785;SDS011;47692;53.714;11.372;2023-02-18T08:41:14;11.75;;;2.90;;
61785;SDS011;47692;53.714;11.372;2023-02-18T08:43:40;7.05;;;2.60;;
61785;SDS011;47692;53.714;11.372;2023-02-18T08:46:06;12.55;;;2.50;;
61785;SDS011;47692;53.714;11.372;2023-02-18T08:48:31;9.68;;;2.60;;
61785;SDS011;47692;53.714;11.372;2023-02-18T08:50:57;13.82;;;3.47;;
61785;SDS011;47692;53.714;11.372;2023-02-18T08:53:23;4.70;;;1.63;;
61785;SDS011;47692;53.714;11.372;2023-02-18T08:55:48;6.65;;;1.77;;
61785;SDS011;47692;53.714;11.372;2023-02-18T08:58:13;2.70;;;1.40;;
61785;SDS011;47692;53.714;11.372;2023-02-18T09:00:40;9.63;;;2.10;;
61785;SDS011;47692;53.714;11.372;2023-02-18T09:03:06;8.90;;;2.10;;
61785;SDS011;47692;53.714;11.372;2023-02-18T09:05:32;8.75;;;2.50;;
61785;SDS011;47692;53.714;11.372;2023-02-18T09:07:57;7.38;;;2.30;;
61785;SDS011;47692;53.714;11.372;2023-02-18T09:10:22;6.95;;;3.05;;
61785;SDS011;47692;53.714;11.372;2023-02-18T09:12:48;9.13;;;2.70;;
61785;SDS011;47692;53.714;11.372;2023-02-18T09:15:13;5.10;;;2.10;;
61785;SDS011;47692;53.714;11.372;2023-02-18T09:17:38;8.18;;;2.65;;
61785;SDS011;47692;53.714;11.372;2023-02-18T09:20:04;20.25;;;7.80;;
61785;SDS011;47692;53.714;11.372;2023-02-18T09:22:30;8.60;;;2.25;;
61785;SDS011;47692;53.714;11.372;2023-02-18T09:24:56;6.55;;;2.33;;
61785;SDS011;47692;53.714;11.372;2023-02-18T09:27:22;12.77;;;4.18;;
61785;SDS011;47692;53.714;11.372;2023-02-18T09:29:48;27.77;;;14.38;;
61785;SDS011;47692;53.714;11.372;2023-02-18T09:32:15;18.00;;;14.40;;
61785;SDS011;47692;53.714;11.372;2023-02-18T09:34:41;9.02;;;4.88;;
61785;SDS011;47692;53.714;11.372;2023-02-18T09:37:07;12.55;;;9.30;;
61785;SDS011;47692;53.714;11.372;2023-02-18T09:39:32;4.40;;;2.90;;
61785;SDS011;47692;53.714;11.372;2023-02-18T09:42:04;4.53;;;2.08;;
61785;SDS011;47692;53.714;11.372;2023-02-18T09:44:45;6.60;;;2.30;;
61785;SDS011;47692;53.714;11.372;2023-02-18T09:47:28;5.80;;;1.13;;
61785;SDS011;47692;53.714;11.372;2023-02-18T09:49:57;5.07;;;2.22;;
61785;SDS011;47692;53.714;11.372;2023-02-18T09:52:29;4.05;;;1.38;;
61785;SDS011;47692;53.714;11.372;2023-02-18T09:54:57;5.82;;;2.47;;
61785;SDS011;47692;53.714;11.372;2023-02-18T09:57:24;5.18;;;2.15;;
61785;SDS011;47692;53.714;11.372;2023-02-18T09:59:55;3.38;;;1.48;;
61785;SDS011;47692;53.714;11.372;2023-02-18T10:02:25;4.97;;;2.33;;
61785;SDS011;47692;53.714;11.372;2023-02-18T10:04:52;5.90;;;2.20;;
61785;SDS011;47692;53.714;11.372;2023-02-18T10:07:24;4.88;;;1.80;;
61785;SDS011;47692;53.714;11.372;2023-02-18T10:09:52;4.95;;;2.55;;
61785;SDS011;47692;53.714;11.372;2023-02-18T10:12:21;4.78;;;2.10;;
61785;SDS011;47692;53.714;11.372;2023-02-18T10:14:49;8.10;;;3.35;;
61785;SDS011;47692;53.714;11.372;2023-02-18T10:17:20;5.95;;;2.83;;
61785;SDS011;47692;53.714;11.372;2023-02-18T10:19:48;5.15;;;3.00;;
61785;SDS011;47692;53.714;11.372;2023-02-18T10:22:15;5.97;;;2.30;;
61785;SDS011;47692;53.714;11.372;2023-02-18T10:27:20;5.75;;;2.67;;
61785;SDS011;47692;53.714;11.372;2023-02-18T10:29:50;4.57;;;2.63;;
61785;SDS011;47692;53.714;11.372;2023-02-18T10:32:18;6.78;;;2.30;;
61785;SDS011;47692;53.714;11.372;2023-02-18T10:45:34;4.32;;;1.20;;
61785;SDS011;47692;53.714;11.372;2023-02-18T10:51:22;5.50;;;2.08;;
61785;SDS011;47692;53.714;11.372;2023-02-18T10:53:52;3.60;;;1.52;;
61785;SDS011;47692;53.714;11.372;2023-02-18T10:56:40;4.50;;;2.35;;
61785;SDS011;47692;53.714;11.372;2023-02-18T10:59:20;6.13;;;2.50;;
61785;SDS011;47692;53.714;11.372;2023-02-18T11:01:54;7.32;;;3.00;;
61785;SDS011;47692;53.714;11.372;2023-02-18T11:04:33;9.35;;;3.50;;
61785;SDS011;47692;53.714;11.372;2023-02-18T11:07:04;8.23;;;3.80;;
61785;SDS011;47692;53.714;11.372;2023-02-18T11:10:23;6.55;;;2.33;;
61785;SDS011;47692;53.714;11.372;2023-02-18T11:17:38;17.05;;;9.57;;
61785;SDS011;47692;53.714;11.372;2023-02-18T11:20:19;20.02;;;10.10;;
61785;SDS011;47692;53.714;11.372;2023-02-18T11:22:48;11.57;;;5.32;;
61785;SDS011;47692;53.714;11.372;2023-02-18T11:25:25;8.98;;;4.35;;
61785;SDS011;47692;53.714;11.372;2023-02-18T11:27:58;10.00;;;5.63;;
61785;SDS011;47692;53.714;11.372;2023-02-18T11:32:58;5.55;;;2.42;;
61785;SDS011;47692;53.714;11.372;2023-02-18T11:35:28;6.32;;;2.53;;
61785;SDS011;47692;53.714;11.372;2023-02-18T11:37:56;5.97;;;3.80;;
61785;SDS011;47692;53.714;11.372;2023-02-18T11:40:23;8.00;;;3.83;;
61785;SDS011;47692;53.714;11.372;2023-02-18T11:45:29;6.22;;;3.45;;
61785;SDS011;47692;53.714;11.372;2023-02-18T11:48:01;5.72;;;2.72;;
61785;SDS011;47692;53.714;11.372;2023-02-18T11:50:32;9.18;;;3.72;;
61785;SDS011;47692;53.714;11.372;2023-02-18T11:52:58;10.38;;;5.68;;
61785;SDS011;47692;53.714;11.372;2023-02-18T11:55:28;8.38;;;3.00;;
61785;SDS011;47692;53.714;11.372;2023-02-18T11:57:59;9.05;;;4.05;;
61785;SDS011;47692;53.714;11.372;2023-02-18T12:00:45;9.07;;;4.57;;
61785;SDS011;47692;53.714;11.372;2023-02-18T12:03:14;5.18;;;1.98;;
61785;SDS011;47692;53.714;11.372;2023-02-18T12:06:01;6.70;;;3.17;;
61785;SDS011;47692;53.714;11.372;2023-02-18T12:08:31;6.60;;;2.83;;
61785;SDS011;47692;53.714;11.372;2023-02-18T12:11:03;5.70;;;2.88;;
61785;SDS011;47692;53.714;11.372;2023-02-18T12:13:42;4.78;;;2.22;;
61785;SDS011;47692;53.714;11.372;2023-02-18T12:21:14;4.03;;;1.88;;
61785;SDS011;47692;53.714;11.372;2023-02-18T12:26:32;5.05;;;2.53;;
61785;SDS011;47692;53.714;11.372;2023-02-18T12:29:11;6.60;;;3.33;;
61785;SDS011;47692;53.714;11.372;2023-02-18T12:45:55;3.75;;;1.70;;
61785;SDS011;47692;53.714;11.372;2023-02-18T12:49:04;3.13;;;1.70;;
61785;SDS011;47692;53.714;11.372;2023-02-18T12:54:12;3.90;;;1.75;;
61785;SDS011;47692;53.714;11.372;2023-02-18T13:00:11;3.15;;;1.30;;
61785;SDS011;47692;53.714;11.372;2023-02-18T13:05:56;2.35;;;1.17;;
61785;SDS011;47692;53.714;11.372;2023-02-18T13:14:16;3.10;;;1.08;;
61785;SDS011;47692;53.714;11.372;2023-02-18T13:16:53;1.23;;;0.70;;
61785;SDS011;47692;53.714;11.372;2023-02-18T13:19:24;1.60;;;0.90;;
61785;SDS011;47692;53.714;11.372;2023-02-18T13:21:55;2.60;;;0.80;;
61785;SDS011;47692;53.714;11.372;2023-02-18T13:24:42;0.50;;;0.47;;
61785;SDS011;47692;53.714;11.372;2023-02-18T13:27:19;0.57;;;0.40;;
61785;SDS011;47692;53.714;11.372;2023-02-18T13:29:52;0.55;;;0.32;;
61785;SDS011;47692;53.714;11.372;2023-02-18T13:32:30;0.32;;;0.30;;
61785;SDS011;47692;53.714;11.372;2023-02-18T13:37:58;1.42;;;0.40;;
61785;SDS011;47692;53.714;11.372;2023-02-18T13:40:43;1.23;;;0.50;;
61785;SDS011;47692;53.714;11.372;2023-02-18T13:48:29;1.23;;;0.60;;
61785;SDS011;47692;53.714;11.372;2023-02-18T13:50:59;1.13;;;0.52;;
61785;SDS011;47692;53.714;11.372;2023-02-18T13:53:28;0.82;;;0.50;;
61785;SDS011;47692;53.714;11.372;2023-02-18T13:56:03;0.55;;;0.40;;
61785;SDS011;47692;53.714;11.372;2023-02-18T13:58:41;2.65;;;0.50;;
61785;SDS011;47692;53.714;11.372;2023-02-18T14:08:51;0.75;;;0.50;;
61785;SDS011;47692;53.714;11.372;2023-02-18T14:11:33;1.88;;;0.40;;
61785;SDS011;47692;53.714;11.372;2023-02-18T14:19:53;0.98;;;0.50;;
61785;SDS011;47692;53.714;11.372;2023-02-18T14:22:27;0.40;;;0.40;;
61785;SDS011;47692;53.714;11.372;2023-02-18T14:25:15;2.08;;;0.60;;
61785;SDS011;47692;53.714;11.372;2023-02-18T14:27:49;0.77;;;0.50;;
61785;SDS011;47692;53.714;11.372;2023-02-18T14:30:23;1.42;;;0.40;;
61785;SDS011;47692;53.714;11.372;2023-02-18T14:32:55;0.40;;;0.30;;
61785;SDS011;47692;53.714;11.372;2023-02-18T14:35:41;0.22;;;0.20;;
61785;SDS011;47692;53.714;11.372;2023-02-18T14:44:07;0.40;;;0.40;;
61785;SDS011;47692;53.714;11.372;2023-02-18T14:46:43;1.05;;;0.30;;
61785;SDS011;47692;53.714;11.372;2023-02-18T14:51:56;0.82;;;0.38;;
61785;SDS011;47692;53.714;11.372;2023-02-18T14:54:23;1.15;;;0.60;;
61785;SDS011;47692;53.714;11.372;2023-02-18T14:57:08;0.47;;;0.30;;
61785;SDS011;47692;53.714;11.372;2023-02-18T14:59:40;0.65;;;0.40;;
61785;SDS011;47692;53.714;11.372;2023-02-18T15:02:17;1.73;;;0.50;;
61785;SDS011;47692;53.714;11.372;2023-02-18T15:04:43;2.78;;;1.10;;
61785;SDS011;47692;53.714;11.372;2023-02-18T15:07:10;3.80;;;0.50;;
61785;SDS011;47692;53.714;11.372;2023-02-18T15:09:43;1.20;;;0.63;;
61785;SDS011;47692;53.714;11.372;2023-02-18T15:12:11;1.23;;;0.50;;
61785;SDS011;47692;53.714;11.372;2023-02-18T15:14:42;1.63;;;0.60;;
61785;SDS011;47692;53.714;11.372;2023-02-18T15:17:12;1.02;;;0.63;;
61785;SDS011;47692;53.714;11.372;2023-02-18T15:19:46;0.70;;;0.55;;
61785;SDS011;47692;53.714;11.372;2023-02-18T15:22:17;1.08;;;0.70;;
61785;SDS011;47692;53.714;11.372;2023-02-18T15:24:45;0.90;;;0.70;;
61785;SDS011;47692;53.714;11.372;2023-02-18T15:27:11;2.67;;;0.70;;
61785;SDS011;47692;53.714;11.372;2023-02-18T15:29:39;1.70;;;0.85;;
61785;SDS011;47692;53.714;11.372;2023-02-18T15:32:13;3.50;;;0.90;;
61785;SDS011;47692;53.714;11.372;2023-02-18T15:34:52;1.55;;;1.00;;
61785;SDS011;47692;53.714;11.372;2023-02-18T15:37:27;10.18;;;3.08;;
61785;SDS011;47692;53.714;11.372;2023-02-18T15:39:53;8.90;;;3.00;;
61785;SDS011;47692;53.714;11.372;2023-02-18T15:48:13;1.98;;;1.20;;
61785;SDS011;47692;53.714;11.372;2023-02-18T15:50:50;1.92;;;0.90;;
61785;SDS011;47692;53.714;11.372;2023-02-18T15:53:18;3.67;;;1.20;;
61785;SDS011;47692;53.714;11.372;2023-02-18T15:55:45;2.08;;;1.10;;
61785;SDS011;47692;53.714;11.372;2023-02-18T15:58:26;2.60;;;1.23;;
61785;SDS011;47692;53.714;11.372;2023-02-18T16:00:56;2.05;;;1.10;;
61785;SDS011;47692;53.714;11.372;2023-02-18T16:03:28;3.45;;;1.10;;
61785;SDS011;47692;53.714;11.372;2023-02-18T16:06:17;1.63;;;1.38;;
61785;SDS011;47692;53.714;11.372;2023-02-18T16:09:30;2.50;;;1.08;;
61785;SDS011;47692;53.714;11.372;2023-02-18T16:12:11;1.33;;;0.98;;
61785;SDS011;47692;53.714;11.372;2023-02-18T16:15:02;1.27;;;0.80;;
61785;SDS011;47692;53.714;11.372;2023-02-18T16:17:29;1.73;;;1.00;;
61785;SDS011;47692;53.714;11.372;2023-02-18T16:25:06;7.28;;;2.92;;
61785;SDS011;47692;53.714;11.372;2023-02-18T16:27:45;3.67;;;2.65;;
61785;SDS011;47692;53.714;11.372;2023-02-18T16:30:17;2.25;;;1.25;;
61785;SDS011;47692;53.714;11.372;2023-02-18T16:32:53;2.38;;;1.10;;
61785;SDS011;47692;53.714;11.372;2023-02-18T16:35:19;3.20;;;1.33;;
61785;SDS011;47692;53.714;11.372;2023-02-18T16:37:46;1.48;;;0.80;;
61785;SDS011;47692;53.714;11.372;2023-02-18T16:42:52;1.48;;;0.95;;
61785;SDS011;47692;53.714;11.372;2023-02-18T16:45:19;2.33;;;1.15;;
61785;SDS011;47692;53.714;11.372;2023-02-18T16:47:56;7.25;;;5.53;;
61785;SDS011;47692;53.714;11.372;2023-02-18T16:50:21;8.95;;;6.63;;
61785;SDS011;47692;53.714;11.372;2023-02-18T16:52:47;8.77;;;6.22;;
61785;SDS011;47692;53.714;11.372;2023-02-18T16:55:18;2.20;;;1.63;;
61785;SDS011;47692;53.714;11.372;2023-02-18T16:57:46;3.20;;;2.30;;
61785;SDS011;47692;53.714;11.372;2023-02-18T17:00:12;7.88;;;4.65;;
61785;SDS011;47692;53.714;11.372;2023-02-18T17:02:39;4.43;;;2.13;;
61785;SDS011;47692;53.714;11.372;2023-02-18T17:05:05;1.40;;;1.00;;
61785;SDS011;47692;53.714;11.372;2023-02-18T17:07:30;2.30;;;0.90;;
61785;SDS011;47692;53.714;11.372;2023-02-18T17:09:57;3.03;;;1.90;;